Time;durP1;ratioP1;P1;durP2;ratioP2;P2;SDS_P1;SDS_P2;PMS_P1;PMS_P2;Temp;Humidity;BMP_temperature;BMP_pressure;BME280_temperature;BME280_humidity;BME280_pressure;Samples;Min_cycle;Max_cycle;Signal;HPM_P1;HPM_P2
2024/01/10 00:58:24;;;;;;;;;;;;;;;;;;;;;
2024/01/10 01:03:58;;;;;;;3.23;1.10;;;-3.40;99.90;;;;;;5027545;23;20491;-93
2024/01/10 01:10:02;;;;;;;;;;;;;;;;;;;;;
2024/01/10 01:12:28;;;;;;;6.83;0.80;;;-3.60;99.90;;;;;;5011624;23;20161;-94
2024/01/10 01:14:39;;;;;;;1.43;0.63;;;-3.60;99.90;;;;;;5021588;23;20163;-93
2024/01/10 01:17:26;;;;;;;1.57;0.73;;;-3.60;99.90;;;;;;5051760;23;20466;-92
2024/01/10 01:19:31;;;;;;;1.90;0.60;;;-3.60;99.90;;;;;;5022580;23;20158;-94
2024/01/10 01:22:01;;;;;;;3.53;1.57;;;-3.60;99.90;;;;;;5037206;23;20150;-94
2024/01/10 01:24:12;;;;;;;1.57;0.60;;;-3.70;99.90;;;;;;5025456;23;20215;-93
2024/01/10 01:26:20;;;;;;;2.47;1.17;;;-3.70;99.90;;;;;;5046340;23;20198;-94
2024/01/10 01:28:32;;;;;;;0.53;0.50;;;-3.60;99.90;;;;;;5046910;23;20569;-95
2024/01/10 01:30:54;;;;;;;2.73;1.03;;;-3.60;99.90;;;;;;5047521;23;20233;-93
2024/01/10 01:33:04;;;;;;;0.80;0.80;;;-3.60;99.90;;;;;;5046881;23;20161;-92
2024/01/10 01:35:30;;;;;;;1.27;0.57;;;-3.60;99.90;;;;;;5046792;23;20150;-93
2024/01/10 01:37:48;;;;;;;;;;;;;;;;;;;;;
2024/01/10 01:39:57;;;;;;;1.83;0.83;;;-3.50;99.90;;;;;;5046983;23;20448;-93
2024/01/10 01:42:11;;;;;;;1.03;0.80;;;-3.60;99.90;;;;;;5048147;23;20598;-93
2024/01/10 01:44:25;;;;;;;1.80;0.70;;;-3.50;99.90;;;;;;5024143;23;20182;-96
2024/01/10 01:46:35;;;;;;;3.37;0.77;;;-3.50;99.90;;;;;;5024148;23;20215;-93
2024/01/10 01:48:49;;;;;;;;;;;;;;;;;;;;;
2024/01/10 01:51:04;;;;;;;0.50;0.50;;;-3.50;99.90;;;;;;5046988;23;20154;-96
2024/01/10 01:53:05;;;;;;;5.83;0.90;;;-3.50;99.90;;;;;;5046271;23;20157;-93
2024/01/10 01:55:08;;;;;;;1.30;0.50;;;-3.40;99.90;;;;;;5023435;23;20159;-93
2024/01/10 01:57:11;;;;;;;2.63;1.23;;;-3.50;99.90;;;;;;5023002;23;20171;-95
2024/01/10 01:59:13;;;;;;;1.13;0.60;;;-3.50;99.90;;;;;;5048141;23;20239;-94
2024/01/10 02:01:14;;;;;;;1.93;0.70;;;-3.50;99.90;;;;;;5023389;23;20147;-92
2024/01/10 02:03:15;;;;;;;5.40;1.10;;;-3.60;99.90;;;;;;5022988;23;20260;-92
2024/01/10 02:05:16;;;;;;;1.30;0.83;;;-3.60;99.90;;;;;;5046553;23;20158;-94
2024/01/10 02:07:20;;;;;;;0.63;0.63;;;-3.60;99.90;;;;;;5025105;23;20206;-92
2024/01/10 02:09:21;;;;;;;1.40;0.87;;;-3.60;99.90;;;;;;5023332;23;20165;-93
2024/01/10 02:11:28;;;;;;;5.80;0.73;;;-3.60;99.90;;;;;;5022725;23;20151;-93
2024/01/10 02:13:30;;;;;;;1.90;0.97;;;-3.60;99.90;;;;;;5022765;23;20151;-93
2024/01/10 02:15:31;;;;;;;2.97;0.93;;;-3.60;99.90;;;;;;5023060;23;20159;-94
2024/01/10 02:17:31;;;;;;;0.77;0.47;;;-3.50;99.90;;;;;;5022116;23;20179;-93
2024/01/10 02:19:34;;;;;;;2.07;0.83;;;-3.40;99.90;;;;;;5022787;23;20578;-94
2024/01/10 02:21:35;;;;;;;0.93;0.47;;;-3.40;99.90;;;;;;5022110;23;20151;-93
2024/01/10 02:23:36;;;;;;;2.00;0.77;;;-3.40;99.90;;;;;;5022182;23;20190;-93
2024/01/10 02:25:41;;;;;;;0.53;0.53;;;-3.40;99.90;;;;;;5024062;23;20206;-95
2024/01/10 02:27:42;;;;;;;0.47;0.30;;;-3.50;99.90;;;;;;5022394;23;20175;-95
2024/01/10 02:29:43;;;;;;;1.17;1.07;;;-3.30;99.90;;;;;;5022171;23;20150;-93
2024/01/10 02:31:44;;;;;;;3.23;0.97;;;-3.30;99.90;;;;;;5022407;23;20695;-94
2024/01/10 02:33:45;;;;;;;1.03;0.60;;;-3.30;99.90;;;;;;5022087;23;20179;-93
2024/01/10 02:35:49;;;;;;;1.20;0.53;;;-3.40;99.90;;;;;;5046567;23;20154;-94
2024/01/10 02:37:51;;;;;;;1.67;1.00;;;-3.50;99.90;;;;;;5023187;23;20170;-94
2024/01/10 02:39:52;;;;;;;1.03;0.60;;;-3.60;99.90;;;;;;5022523;23;20163;-93
2024/01/10 02:41:53;;;;;;;1.70;0.97;;;-3.60;99.90;;;;;;5023055;23;20483;-93
2024/01/10 02:43:58;;;;;;;1.93;1.23;;;-3.70;99.90;;;;;;5022247;23;20190;-92
2024/01/10 02:45:59;;;;;;;0.37;0.37;;;-3.70;99.90;;;;;;5022278;23;20155;-92
2024/01/10 02:48:00;;;;;;;0.70;0.70;;;-3.80;99.90;;;;;;5024413;23;20171;-92
2024/01/10 02:50:01;;;;;;;1.57;0.80;;;-3.90;99.90;;;;;;5023095;23;20278;-93
2024/01/10 02:52:02;;;;;;;2.90;1.07;;;-3.90;99.90;;;;;;5047627;23;20155;-93
2024/01/10 02:54:03;;;;;;;3.33;1.43;;;-3.90;99.90;;;;;;5022685;23;20174;-93
2024/01/10 02:56:05;;;;;;;0.50;0.40;;;-3.80;99.90;;;;;;5023673;23;20633;-92
2024/01/10 02:58:06;;;;;;;0.90;0.60;;;-3.70;99.90;;;;;;5047270;23;20704;-94
2024/01/10 03:00:09;;;;;;;4.03;0.60;;;-3.70;99.90;;;;;;5047624;23;20245;-92
2024/01/10 03:02:09;;;;;;;1.43;1.23;;;-3.60;99.90;;;;;;5023086;23;20507;-93
2024/01/10 03:04:10;;;;;;;4.37;1.03;;;-3.60;99.90;;;;;;5046751;23;20233;-92
2024/01/10 03:06:11;;;;;;;0.50;0.50;;;-3.60;99.90;;;;;;5023653;23;20219;-93
2024/01/10 03:08:12;;;;;;;1.67;1.03;;;-3.50;99.90;;;;;;5021983;23;20170;-93
2024/01/10 03:10:13;;;;;;;2.00;0.70;;;-3.60;99.90;;;;;;5021795;23;20162;-93
2024/01/10 03:12:14;;;;;;;0.83;0.70;;;-3.70;99.90;;;;;;5047778;23;20163;-93
2024/01/10 03:14:15;;;;;;;0.47;0.47;;;-3.60;99.90;;;;;;5023272;23;20229;-92
2024/01/10 03:16:18;;;;;;;2.93;0.90;;;-3.60;99.90;;;;;;5021682;23;20166;-93
2024/01/10 03:18:19;;;;;;;0.60;0.33;;;-3.60;99.90;;;;;;5047195;23;20158;-94
2024/01/10 03:20:20;;;;;;;0.90;0.90;;;-3.50;99.90;;;;;;5021361;23;20186;-93
2024/01/10 03:22:21;;;;;;;4.10;1.00;;;-3.50;99.90;;;;;;5021123;23;20155;-94
2024/01/10 03:24:24;;;;;;;3.47;1.20;;;-3.70;99.90;;;;;;5022151;23;20159;-93
2024/01/10 03:26:25;;;;;;;0.43;0.43;;;-3.80;99.90;;;;;;5022663;23;20194;-93
2024/01/10 03:28:26;;;;;;;1.23;1.13;;;-3.90;99.90;;;;;;5045747;23;20757;-94
2024/01/10 03:30:27;;;;;;;1.07;0.80;;;-3.90;99.90;;;;;;5021817;23;20223;-93
2024/01/10 03:32:28;;;;;;;3.90;0.80;;;-4.00;99.90;;;;;;5046518;23;20158;-92
2024/01/10 03:34:28;;;;;;;1.33;0.87;;;-4.10;99.90;;;;;;5021969;23;20175;-93
2024/01/10 03:36:29;;;;;;;2.00;1.03;;;-4.10;99.90;;;;;;5021124;23;20159;-93
2024/01/10 03:38:30;;;;;;;2.53;1.07;;;-4.10;99.90;;;;;;5021803;23;20186;-93
2024/01/10 03:40:31;;;;;;;2.80;1.30;;;-4.00;99.90;;;;;;5045013;23;20158;-92
2024/01/10 03:42:32;;;;;;;2.60;1.07;;;-4.00;99.90;;;;;;5022384;23;20183;-92
2024/01/10 03:44:33;;;;;;;0.93;0.60;;;-3.90;99.90;;;;;;5023072;23;20163;-94
2024/01/10 03:46:34;;;;;;;1.67;0.97;;;-3.90;99.90;;;;;;5021370;23;20174;-93
2024/01/10 03:48:35;;;;;;;5.83;1.13;;;-3.80;99.90;;;;;;5021267;23;20155;-93
2024/01/10 03:50:38;;;;;;;1.40;0.83;;;-3.80;99.90;;;;;;5044989;23;20194;-92
2024/01/10 03:52:39;;;;;;;3.10;1.33;;;-3.80;99.90;;;;;;5021326;23;20617;-93
2024/01/10 03:54:40;;;;;;;2.43;0.93;;;-3.90;99.90;;;;;;5045313;23;20147;-92
2024/01/10 03:56:41;;;;;;;1.60;0.83;;;-3.90;99.90;;;;;;5021237;23;20186;-93
2024/01/10 03:58:42;;;;;;;6.87;2.23;;;-4.00;99.90;;;;;;5022486;23;20249;-92
2024/01/10 04:00:44;;;;;;;3.37;1.53;;;-4.00;99.90;;;;;;5021489;23;20697;-91
2024/01/10 04:02:44;;;;;;;3.17;1.67;;;-4.10;99.90;;;;;;5021378;23;20190;-91
2024/01/10 04:04:45;;;;;;;4.27;0.93;;;-4.20;99.90;;;;;;5021680;23;20163;-92
2024/01/10 04:06:47;;;;;;;1.17;0.90;;;-4.20;99.90;;;;;;5046112;23;20192;-92
2024/01/10 04:08:48;;;;;;;1.27;1.10;;;-4.20;99.90;;;;;;5045823;23;20154;-92
2024/01/10 04:10:49;;;;;;;4.30;0.97;;;-4.10;99.90;;;;;;5021146;23;20162;-92
2024/01/10 04:12:49;;;;;;;2.67;1.33;;;-4.10;99.90;;;;;;5021331;23;20159;-92
2024/01/10 04:14:50;;;;;;;2.10;1.20;;;-4.10;99.90;;;;;;5022395;23;20155;-92
2024/01/10 04:16:53;;;;;;;0.70;0.40;;;-4.10;99.90;;;;;;5021312;23;20185;-93
2024/01/10 04:18:54;;;;;;;2.23;1.10;;;-4.20;99.90;;;;;;5045374;23;20177;-93
2024/01/10 04:20:55;;;;;;;5.43;1.33;;;-4.10;99.90;;;;;;5021984;23;20151;-92
2024/01/10 04:22:56;;;;;;;1.47;1.37;;;-4.10;99.90;;;;;;5044748;23;20194;-91
2024/01/10 04:25:00;;;;;;;2.97;1.30;;;-4.10;99.90;;;;;;5020954;23;20188;-93
2024/01/10 04:27:01;;;;;;;1.63;1.00;;;-4.20;99.90;;;;;;5021344;23;20621;-91
2024/01/10 04:29:02;;;;;;;2.40;1.40;;;-4.20;99.90;;;;;;5046658;23;20154;-93
2024/01/10 04:31:03;;;;;;;1.37;0.80;;;-4.20;99.90;;;;;;5020956;23;20182;-92
2024/01/10 04:33:04;;;;;;;2.50;1.07;;;-4.10;99.90;;;;;;5021194;23;20159;-92
2024/01/10 04:35:06;;;;;;;2.57;0.53;;;-4.10;99.90;;;;;;5022875;23;20131;-92
2024/01/10 04:37:26;;;;;;;2.47;0.93;;;-4.10;99.90;;;;;;5070745;23;20208;-91
2024/01/10 04:39:27;;;;;;;3.30;1.20;;;-4.00;99.90;;;;;;5021222;23;20234;-92
2024/01/10 04:41:28;;;;;;;6.50;2.00;;;-4.10;99.90;;;;;;5021518;23;20163;-92
2024/01/10 04:43:29;;;;;;;3.90;1.10;;;-4.20;99.90;;;;;;5022009;23;20195;-92
2024/01/10 04:45:29;;;;;;;6.17;1.47;;;-4.20;99.90;;;;;;5021914;23;20565;-91
2024/01/10 04:47:30;;;;;;;2.90;1.20;;;-4.20;99.90;;;;;;5020782;23;20709;-93
2024/01/10 04:49:31;;;;;;;1.50;0.57;;;-4.20;99.90;;;;;;5045030;23;20233;-92
2024/01/10 04:51:32;;;;;;;2.83;1.80;;;-4.20;99.90;;;;;;5021390;23;20151;-92
2024/01/10 04:53:33;;;;;;;3.67;0.90;;;-4.20;99.90;;;;;;5044924;23;20170;-92
2024/01/10 04:55:34;;;;;;;2.87;1.17;;;-4.20;99.90;;;;;;5023707;23;20233;-91
2024/01/10 04:57:35;;;;;;;2.93;1.53;;;-4.10;99.90;;;;;;5024203;23;20174;-92
2024/01/10 04:59:36;;;;;;;3.57;0.70;;;-4.10;99.90;;;;;;5024413;23;20165;-92
2024/01/10 05:01:37;;;;;;;3.50;1.60;;;-4.10;99.90;;;;;;5023619;23;20159;-91
2024/01/10 05:03:37;;;;;;;1.20;0.80;;;-4.10;99.90;;;;;;5023850;23;20199;-91
2024/01/10 05:05:38;;;;;;;9.77;1.97;;;-4.00;99.90;;;;;;5024725;23;20155;-93
2024/01/10 05:07:39;;;;;;;1.50;1.13;;;-4.10;99.90;;;;;;5022554;23;20171;-92
2024/01/10 05:09:40;;;;;;;4.63;1.23;;;-4.00;99.90;;;;;;5047605;23;20258;-92
2024/01/10 05:11:41;;;;;;;0.93;0.87;;;-3.90;99.90;;;;;;5023028;23;20151;-93
2024/01/10 05:13:43;;;;;;;2.13;1.47;;;-3.80;99.90;;;;;;5022505;23;20162;-94
2024/01/10 05:15:44;;;;;;;3.23;1.33;;;-3.70;99.90;;;;;;5047153;23;20612;-92
2024/01/10 05:17:45;;;;;;;1.40;0.70;;;-3.80;99.90;;;;;;5022328;23;20261;-92
2024/01/10 05:19:45;;;;;;;3.20;1.97;;;-3.90;99.90;;;;;;5023383;23;20210;-92
2024/01/10 05:21:46;;;;;;;1.33;0.70;;;-4.00;99.90;;;;;;5023050;23;20202;-90
2024/01/10 05:23:47;;;;;;;0.27;0.27;;;-4.00;99.90;;;;;;5023933;23;20194;-92
2024/01/10 05:25:48;;;;;;;2.30;0.90;;;-4.00;99.90;;;;;;5022683;23;20166;-91
2024/01/10 05:27:49;;;;;;;1.23;0.60;;;-3.90;99.90;;;;;;5022353;23;20578;-93
2024/01/10 05:29:50;;;;;;;1.20;0.83;;;-4.00;99.90;;;;;;5022531;23;20159;-91
2024/01/10 05:31:51;;;;;;;0.83;0.63;;;-4.10;99.90;;;;;;5022211;23;20162;-92
2024/01/10 05:33:53;;;;;;;2.30;0.57;;;-4.10;99.90;;;;;;5023992;23;20190;-91
2024/01/10 05:35:53;;;;;;;1.53;0.80;;;-4.10;99.90;;;;;;5022541;23;20174;-92
2024/01/10 05:37:54;;;;;;;1.30;0.57;;;-4.10;99.90;;;;;;5022350;23;20178;-93
2024/01/10 05:39:55;;;;;;;0.50;0.50;;;-4.00;99.90;;;;;;5023267;23;20222;-92
2024/01/10 05:41:56;;;;;;;3.73;1.17;;;-4.10;99.90;;;;;;5023172;23;20159;-91
2024/01/10 05:43:57;;;;;;;1.83;1.03;;;-4.10;99.90;;;;;;5022323;23;20233;-92
2024/01/10 05:45:59;;;;;;;1.17;0.50;;;-4.20;99.90;;;;;;5022257;23;20162;-92
2024/01/10 05:47:59;;;;;;;2.37;0.60;;;-4.20;99.90;;;;;;5046282;23;20178;-92
2024/01/10 05:50:01;;;;;;;0.87;0.60;;;-4.20;99.90;;;;;;5022023;23;20539;-92
2024/01/10 05:52:02;;;;;;;0.57;0.57;;;-4.20;99.90;;;;;;5022578;23;20155;-91
2024/01/10 05:54:04;;;;;;;1.50;0.63;;;-4.10;99.90;;;;;;5046779;23;20168;-92
2024/01/10 05:56:07;;;;;;;0.73;0.50;;;-4.20;99.90;;;;;;5023277;23;20234;-92
2024/01/10 05:58:09;;;;;;;1.83;1.10;;;-4.10;99.90;;;;;;5022544;23;20186;-92
2024/01/10 06:00:11;;;;;;;0.40;0.37;;;-4.00;99.90;;;;;;5023118;23;20608;-91
2024/01/10 06:02:11;;;;;;;1.30;0.97;;;-4.00;99.90;;;;;;5021742;23;20159;-92
2024/01/10 06:04:12;;;;;;;0.53;0.53;;;-4.00;99.90;;;;;;5046181;23;20153;-92
2024/01/10 06:06:13;;;;;;;0.57;0.37;;;-4.30;99.90;;;;;;5023565;23;20163;-91
2024/01/10 06:08:14;;;;;;;1.13;0.67;;;-4.20;99.90;;;;;;5023034;23;20194;-92
2024/01/10 06:10:15;;;;;;;1.17;1.07;;;-4.00;99.90;;;;;;5046334;23;20159;-92
2024/01/10 06:12:16;;;;;;;2.63;0.70;;;-3.90;99.90;;;;;;5024606;23;20156;-92
2024/01/10 06:14:17;;;;;;;4.63;1.23;;;-3.80;99.90;;;;;;5023674;23;20150;-92
2024/01/10 06:16:18;;;;;;;0.90;0.70;;;-3.90;99.90;;;;;;5023208;23;20210;-92
2024/01/10 06:18:19;;;;;;;3.17;1.30;;;-3.80;99.90;;;;;;5046087;23;20237;-92
2024/01/10 06:20:20;;;;;;;9.20;1.07;;;-3.80;99.90;;;;;;5022499;23;20609;-93
2024/01/10 06:22:24;;;;;;;4.50;0.80;;;-3.80;99.90;;;;;;5046034;23;20165;-93
2024/01/10 06:24:26;;;;;;;2.10;1.23;;;-3.70;99.90;;;;;;5022708;23;20158;-93
2024/01/10 06:26:27;;;;;;;1.57;0.47;;;-3.90;99.90;;;;;;5046145;23;20158;-92
2024/01/10 06:28:28;;;;;;;3.83;1.27;;;-3.80;99.90;;;;;;5046898;23;20197;-92
2024/01/10 06:30:29;;;;;;;2.70;0.97;;;-3.80;99.90;;;;;;5022022;23;20222;-93
2024/01/10 06:32:30;;;;;;;3.70;1.27;;;-3.80;99.90;;;;;;5022104;23;20274;-93
2024/01/10 06:34:31;;;;;;;1.50;0.83;;;-4.00;99.90;;;;;;5022618;23;20211;-92
2024/01/10 06:36:32;;;;;;;3.47;2.07;;;-4.10;99.90;;;;;;5022527;23;20203;-92
2024/01/10 06:38:35;;;;;;;2.00;1.17;;;-4.10;99.90;;;;;;5022692;23;20163;-94
2024/01/10 06:40:36;;;;;;;0.60;0.33;;;-4.10;99.90;;;;;;5023584;23;20155;-93
2024/01/10 06:42:38;;;;;;;0.23;0.23;;;-4.10;99.90;;;;;;5023826;23;20262;-92
2024/01/10 06:44:39;;;;;;;1.20;0.43;;;-4.00;99.90;;;;;;5021778;23;20218;-91
2024/01/10 06:46:40;;;;;;;2.40;0.47;;;-4.00;99.90;;;;;;5021778;23;20218;-93
2024/01/10 06:48:41;;;;;;;0.43;0.43;;;-4.00;99.90;;;;;;5023526;23;20578;-92
2024/01/10 06:50:44;;;;;;;2.63;0.60;;;-4.30;99.90;;;;;;5022498;23;20693;-93
2024/01/10 06:52:44;;;;;;;0.60;0.60;;;-4.20;99.90;;;;;;5022878;23;20154;-93
2024/01/10 06:54:45;;;;;;;5.83;1.33;;;-3.80;99.90;;;;;;5047764;23;20158;-93
2024/01/10 06:56:46;;;;;;;1.70;0.93;;;-3.70;99.90;;;;;;5022753;23;20191;-94
2024/01/10 06:58:47;;;;;;;0.50;0.40;;;-3.70;99.90;;;;;;5021767;23;20198;-93
2024/01/10 07:00:50;;;;;;;5.97;1.10;;;-3.80;99.90;;;;;;5045526;23;20154;-93
2024/01/10 07:02:53;;;;;;;0.93;0.63;;;-3.90;99.90;;;;;;5022002;23;20526;-91
2024/01/10 07:04:58;;;;;;;5.73;1.13;;;-3.90;99.90;;;;;;5047711;23;20146;-93
2024/01/10 07:06:59;;;;;;;27.07;0.93;;;-3.80;99.90;;;;;;5022782;23;20206;-94
2024/01/10 07:09:00;;;;;;;0.40;0.40;;;-3.70;99.90;;;;;;5021575;23;20151;-93
2024/01/10 07:11:00;;;;;;;0.83;0.70;;;-4.00;99.90;;;;;;5023177;23;20539;-93
2024/01/10 07:13:04;;;;;;;3.20;0.80;;;-4.00;99.90;;;;;;5023506;23;20138;-93
2024/01/10 07:15:05;;;;;;;2.30;1.13;;;-3.90;99.90;;;;;;5023697;23;20143;-94
2024/01/10 07:17:08;;;;;;;1.80;1.23;;;-4.10;99.90;;;;;;5021441;23;20246;-91
2024/01/10 07:19:13;;;;;;;1.53;0.70;;;-4.30;99.90;;;;;;5024150;23;20680;-94
2024/01/10 07:21:13;;;;;;;2.33;1.23;;;-4.40;99.90;;;;;;5045994;23;20177;-93
2024/01/10 07:23:14;;;;;;;2.30;0.77;;;-4.20;99.90;;;;;;5045818;23;20213;-93
2024/01/10 07:25:15;;;;;;;2.67;1.50;;;-3.80;99.90;;;;;;5022134;23;20154;-94
2024/01/10 07:27:16;;;;;;;4.03;1.63;;;-3.60;99.90;;;;;;5021710;23;20195;-92
2024/01/10 07:29:17;;;;;;;4.27;1.20;;;-3.50;99.90;;;;;;5021271;23;20161;-93
2024/01/10 07:31:18;;;;;;;0.97;0.63;;;-3.70;99.90;;;;;;5022257;23;20206;-92
2024/01/10 07:33:20;;;;;;;2.57;1.03;;;-3.70;99.90;;;;;;5023499;23;20178;-93
2024/01/10 07:35:21;;;;;;;1.70;0.70;;;-3.40;99.90;;;;;;5023121;23;20159;-93
2024/01/10 07:37:22;;;;;;;1.40;1.17;;;-3.20;99.90;;;;;;5022460;23;20734;-93
2024/01/10 07:39:23;;;;;;;2.37;1.10;;;-3.50;99.90;;;;;;5045303;23;20186;-94
2024/01/10 07:41:24;;;;;;;2.60;1.03;;;-3.50;99.90;;;;;;5044987;23;20154;-92
2024/01/10 07:43:26;;;;;;;4.33;0.80;;;-3.60;99.90;;;;;;5045175;23;20665;-94
2024/01/10 07:45:27;;;;;;;2.73;0.63;;;-3.70;99.90;;;;;;5021909;23;20207;-93
2024/01/10 07:47:28;;;;;;;1.47;0.87;;;-4.10;99.90;;;;;;5045379;23;20269;-94
2024/01/10 07:49:29;;;;;;;1.43;1.20;;;-3.90;99.90;;;;;;5021750;23;20717;-92
2024/01/10 07:51:32;;;;;;;5.83;0.80;;;-3.60;99.90;;;;;;5021668;23;20159;-93
2024/01/10 07:53:33;;;;;;;1.10;0.77;;;-3.60;99.90;;;;;;5021550;23;20171;-94
2024/01/10 07:55:37;;;;;;;5.40;0.77;;;-3.70;99.90;;;;;;5021366;23;20199;-93
2024/01/10 07:57:39;;;;;;;3.60;1.97;;;-4.10;99.90;;;;;;5044903;23;20223;-93
2024/01/10 07:59:40;;;;;;;1.40;0.93;;;-4.10;99.90;;;;;;5045202;23;20162;-94
2024/01/10 08:01:44;;;;;;;2.60;1.10;;;-3.60;99.90;;;;;;5021484;23;20238;-93
2024/01/10 08:03:45;;;;;;;2.07;1.03;;;-3.50;99.90;;;;;;5021506;23;20200;-93
2024/01/10 08:05:46;;;;;;;1.90;1.43;;;-3.60;99.90;;;;;;5045996;23;20225;-93
2024/01/10 08:07:48;;;;;;;8.20;0.87;;;-3.50;99.90;;;;;;5021530;23;20224;-93
2024/01/10 08:09:49;;;;;;;1.10;0.57;;;-3.40;99.90;;;;;;5021504;23;20653;-93
2024/01/10 08:11:52;;;;;;;1.10;1.00;;;-3.40;99.90;;;;;;5021605;23;20159;-95
2024/01/10 08:13:52;;;;;;;2.33;0.73;;;-3.30;99.90;;;;;;5045495;23;20155;-94
2024/01/10 08:15:54;;;;;;;0.70;0.70;;;-3.30;99.90;;;;;;5023415;23;20227;-93
2024/01/10 08:17:55;;;;;;;0.77;0.57;;;-3.20;99.90;;;;;;5020969;23;20173;-92
2024/01/10 08:19:57;;;;;;;1.77;0.77;;;-3.10;99.90;;;;;;5045594;23;20173;-93
2024/01/10 08:21:58;;;;;;;1.03;0.83;;;-3.00;99.90;;;;;;5021450;23;20233;-93
2024/01/10 08:23:59;;;;;;;0.73;0.73;;;-3.00;99.90;;;;;;5021251;23;20290;-93
2024/01/10 08:26:00;;;;;;;4.47;1.17;;;-2.90;99.90;;;;;;5045338;23;20605;-93
2024/01/10 08:28:01;;;;;;;3.30;1.57;;;-2.90;99.90;;;;;;5020796;23;20182;-91
2024/01/10 08:30:04;;;;;;;6.10;1.00;;;-2.80;99.90;;;;;;5045205;23;20218;-94
2024/01/10 08:32:05;;;;;;;2.80;1.40;;;-2.90;99.90;;;;;;5021447;23;20155;-93
2024/01/10 08:34:06;;;;;;;2.50;0.97;;;-2.90;99.90;;;;;;5021292;23;20158;-92
2024/01/10 08:36:09;;;;;;;3.93;1.50;;;-2.80;99.90;;;;;;5021491;23;20203;-93
2024/01/10 08:38:11;;;;;;;1.90;0.93;;;-2.90;99.90;;;;;;5021658;23;20680;-91
2024/01/10 08:40:15;;;;;;;2.20;0.80;;;-2.80;99.90;;;;;;5044765;23;20229;-92
2024/01/10 08:42:15;;;;;;;2.80;1.53;;;-2.50;99.90;;;;;;5021008;23;20232;-92
2024/01/10 08:44:16;;;;;;;2.57;1.07;;;-2.30;99.90;;;;;;5021213;23;20226;-95
2024/01/10 08:46:17;;;;;;;1.73;0.70;;;-2.20;99.90;;;;;;5021258;23;20158;-93
2024/01/10 08:48:18;;;;;;;2.20;1.00;;;-2.20;99.90;;;;;;5021361;23;20158;-92
2024/01/10 08:50:19;;;;;;;5.77;1.90;;;-2.20;99.90;;;;;;5044870;23;20208;-92
2024/01/10 08:52:20;;;;;;;5.73;1.70;;;-2.40;99.90;;;;;;5045356;23;20165;-94
2024/01/10 08:54:22;;;;;;;2.53;1.23;;;-2.50;99.90;;;;;;5020796;23;20159;-94
2024/01/10 08:56:23;;;;;;;2.60;1.33;;;-2.70;99.90;;;;;;5021019;23;20155;-94
2024/01/10 08:58:24;;;;;;;2.93;1.30;;;-2.80;99.90;;;;;;5021454;23;20175;-92
2024/01/10 09:00:25;;;;;;;2.37;0.67;;;-2.80;99.90;;;;;;5020920;23;20222;-94
2024/01/10 09:02:27;;;;;;;12.20;1.60;;;-2.70;99.90;;;;;;5021716;23;20158;-92
2024/01/10 09:04:28;;;;;;;3.47;1.47;;;-2.60;99.90;;;;;;5020886;23;20162;-92
2024/01/10 09:06:31;;;;;;;1.57;0.77;;;-2.40;99.90;;;;;;5020686;23;20579;-93
2024/01/10 09:08:32;;;;;;;2.23;0.90;;;-2.50;99.90;;;;;;5021170;23;20159;-92
2024/01/10 09:10:32;;;;;;;1.87;0.73;;;-2.40;99.90;;;;;;5021017;23;20154;-93
2024/01/10 09:12:34;;;;;;;4.33;1.07;;;-2.60;99.90;;;;;;5044682;23;20233;-95
2024/01/10 09:14:35;;;;;;;0.97;0.93;;;-2.60;99.90;;;;;;5020741;23;20158;-92
2024/01/10 09:16:36;;;;;;;3.17;0.80;;;-2.20;99.90;;;;;;5020933;23;20243;-92
2024/01/10 09:18:38;;;;;;;0.67;0.67;;;-2.10;99.90;;;;;;5020556;23;20155;-92
2024/01/10 09:20:40;;;;;;;3.17;0.50;;;-2.20;99.90;;;;;;5044998;23;20483;-94
2024/01/10 09:22:40;;;;;;;2.57;0.90;;;-2.30;99.90;;;;;;5020727;23;20266;-93
2024/01/10 09:24:41;;;;;;;1.10;0.80;;;-2.20;99.90;;;;;;5020759;23;20160;-92
2024/01/10 09:26:44;;;;;;;1.90;1.33;;;-1.90;99.90;;;;;;5021534;23;20175;-92
2024/01/10 09:28:45;;;;;;;5.27;1.03;;;-1.70;99.90;;;;;;5044945;23;20233;-94
2024/01/10 09:30:45;;;;;;;2.83;0.93;;;-1.70;99.90;;;;;;5021045;23;20178;-93
2024/01/10 09:32:47;;;;;;;3.00;1.80;;;-2.00;99.90;;;;;;5021049;23;20155;-92
2024/01/10 09:34:47;;;;;;;2.17;1.10;;;-1.80;99.90;;;;;;5044425;23;20162;-92
2024/01/10 09:36:48;;;;;;;5.93;2.13;;;-1.90;99.90;;;;;;5020931;23;20717;-92
2024/01/10 09:38:49;;;;;;;11.03;4.00;;;-1.70;99.90;;;;;;5020981;23;20245;-93
2024/01/10 09:40:52;;;;;;;5.30;1.73;;;-1.80;99.90;;;;;;5045593;23;20178;-92
2024/01/10 09:42:54;;;;;;;5.73;2.43;;;-2.00;99.90;;;;;;5023015;23;20273;-93
2024/01/10 09:44:55;;;;;;;2.47;1.10;;;-2.40;99.90;;;;;;5023287;23;20151;-92
2024/01/10 09:46:56;;;;;;;3.10;1.50;;;-2.70;99.90;;;;;;5022704;23;20175;-92
2024/01/10 09:48:58;;;;;;;1.87;1.07;;;-2.40;99.90;;;;;;5022908;23;20159;-93
2024/01/10 09:50:59;;;;;;;2.27;1.10;;;-2.40;99.90;;;;;;5046199;23;20225;-93
2024/01/10 09:57:28;;;;;;;2.93;1.30;;;-2.20;99.90;;;;;;5069522;23;20226;-88
2024/01/10 09:59:54;;;;;;;1.90;1.33;;;-2.30;99.90;;;;;;5058260;23;20184;-91
2024/01/10 10:01:58;;;;;;;4.10;1.20;;;-2.10;99.90;;;;;;5021946;23;20545;-90
2024/01/10 10:04:01;;;;;;;4.80;2.27;;;-2.30;99.90;;;;;;5021924;23;20186;-91
2024/01/10 10:06:02;;;;;;;0.80;0.80;;;-2.20;99.90;;;;;;5046344;23;20170;-91
2024/01/10 10:08:06;;;;;;;1.17;0.97;;;-2.20;99.90;;;;;;5022398;23;20201;-87
2024/01/10 10:10:08;;;;;;;1.33;1.13;;;-2.00;99.90;;;;;;5046086;23;20146;-88
2024/01/10 10:12:09;;;;;;;2.40;1.03;;;-1.80;99.90;;;;;;5022639;23;20151;-90
2024/01/10 10:14:18;;;;;;;1.03;0.70;;;-2.10;99.90;;;;;;5046234;23;20210;-94
2024/01/10 10:16:26;;;;;;;1.30;0.47;;;-2.30;99.90;;;;;;5022194;23;20505;-90
2024/01/10 10:18:30;;;;;;;4.17;1.03;;;-2.20;99.90;;;;;;5022510;23;20163;-91
2024/01/10 10:20:37;;;;;;;4.17;1.20;;;-2.00;99.90;;;;;;5022280;23;20178;-90
2024/01/10 10:22:37;;;;;;;2.63;1.43;;;-1.70;99.90;;;;;;5022422;23;20155;-92
2024/01/10 10:24:39;;;;;;;2.37;1.47;;;-1.40;99.90;;;;;;5046161;23;20167;-89
2024/01/10 10:26:41;;;;;;;1.13;1.00;;;-1.50;99.90;;;;;;5047033;23;20160;-90
2024/01/10 10:28:42;;;;;;;1.57;1.20;;;-1.50;99.90;;;;;;5026365;23;20222;-92
2024/01/10 10:30:46;;;;;;;2.67;1.43;;;-1.80;99.90;;;;;;5032932;23;20155;-94
2024/01/10 10:32:47;;;;;;;6.03;2.30;;;-1.50;99.90;;;;;;5036296;23;20704;-94
2024/01/10 10:34:47;;;;;;;4.13;1.60;;;-1.60;99.90;;;;;;5055496;23;20158;-95
2024/01/10 10:36:49;;;;;;;5.13;1.83;;;-1.40;99.90;;;;;;5033817;23;20151;-95
2024/01/10 10:38:50;;;;;;;6.23;1.77;;;-1.30;99.90;;;;;;5031035;23;20162;-89
2024/01/10 10:40:51;;;;;;;5.10;1.73;;;-1.30;99.90;;;;;;5025631;23;20680;-91
2024/01/10 10:42:56;;;;;;;1.57;1.30;;;-1.20;99.90;;;;;;5027141;23;20182;-93
2024/01/10 10:45:02;;;;;;;3.97;1.33;;;-1.40;99.90;;;;;;5026125;23;20173;-95
2024/01/10 10:47:06;;;;;;;6.10;2.43;;;-1.50;99.90;;;;;;5023453;23;20159;-89
2024/01/10 10:49:12;;;;;;;2.03;1.03;;;-1.40;99.90;;;;;;5023128;23;20594;-90
2024/01/10 10:51:32;;;;;;;3.40;1.57;;;-1.10;99.90;;;;;;5048645;23;20233;-95
2024/01/10 10:53:36;;;;;;;4.07;1.13;;;-1.00;99.90;;;;;;5048353;23;20170;-89
2024/01/10 10:55:38;;;;;;;4.23;0.80;;;-0.90;99.90;;;;;;5025568;23;20182;-93
2024/01/10 10:57:42;;;;;;;2.53;2.03;;;-0.80;99.90;;;;;;5049767;23;20154;-89
2024/01/10 10:59:44;;;;;;;4.93;1.43;;;-1.20;99.90;;;;;;5025970;23;20227;-92
2024/01/10 11:01:46;;;;;;;7.47;2.47;;;-1.10;99.90;;;;;;5022497;23;20155;-90
2024/01/10 11:03:48;;;;;;;4.20;2.00;;;-0.70;99.90;;;;;;5023455;23;20190;-92
2024/01/10 11:05:50;;;;;;;6.33;1.87;;;-0.70;99.90;;;;;;5047893;23;20198;-90
2024/01/10 11:07:54;;;;;;;3.67;2.00;;;-0.70;99.90;;;;;;5047211;23;20162;-89
2024/01/10 11:09:55;;;;;;;6.40;2.17;;;-0.90;99.90;;;;;;5025844;23;20147;-89
2024/01/10 11:12:06;;;;;;;3.50;2.17;;;-0.80;99.90;;;;;;5027532;23;20187;-92
2024/01/10 11:14:25;;;;;;;4.03;1.50;;;-0.80;99.90;;;;;;5028389;23;20161;-89
2024/01/10 11:16:39;;;;;;;7.20;2.77;;;-0.80;99.90;;;;;;5025715;23;20178;-89
2024/01/10 11:19:07;;;;;;;6.10;1.77;;;-0.70;99.90;;;;;;5049774;23;20158;-89
2024/01/10 11:21:42;;;;;;;1.37;1.00;;;-0.80;99.90;;;;;;5049322;23;20147;-90
2024/01/10 11:23:51;;;;;;;4.10;1.83;;;-1.00;99.90;;;;;;5003677;23;20198;-90
2024/01/10 11:25:52;;;;;;;8.40;1.83;;;-1.00;99.90;;;;;;5025897;23;20171;-89
2024/01/10 11:27:53;;;;;;;7.10;2.37;;;-0.90;99.90;;;;;;5025062;23;20179;-89
2024/01/10 11:29:58;;;;;;;2.50;1.07;;;-0.80;99.90;;;;;;5025006;23;20151;-95
2024/01/10 11:31:59;;;;;;;7.00;2.37;;;-0.80;99.90;;;;;;5047186;23;20150;-91
2024/01/10 11:34:02;;;;;;;1.63;0.70;;;-0.80;99.90;;;;;;5050143;23;20165;-91
2024/01/10 11:36:13;;;;;;;3.67;1.60;;;-0.80;99.90;;;;;;5024957;23;20253;-91
2024/01/10 11:38:14;;;;;;;5.90;2.20;;;-0.80;99.90;;;;;;5024947;23;20159;-92
2024/01/10 11:40:15;;;;;;;7.60;2.60;;;-0.80;99.90;;;;;;5022114;23;20233;-90
2024/01/10 11:42:42;;;;;;;6.17;2.20;;;-0.50;99.90;;;;;;5046917;23;20490;-89
2024/01/10 11:44:50;;;;;;;12.20;2.40;;;-0.50;99.90;;;;;;5022800;23;20218;-90
2024/01/10 11:46:54;;;;;;;4.63;2.20;;;-0.70;99.90;;;;;;5045825;23;20160;-90
2024/01/10 11:48:56;;;;;;;4.87;2.37;;;-0.70;99.90;;;;;;5022066;23;20206;-91
2024/01/10 11:51:03;;;;;;;8.73;2.57;;;-0.70;99.90;;;;;;5023123;23;20561;-91
2024/01/10 11:53:04;;;;;;;2.30;1.47;;;-0.60;99.90;;;;;;5023262;23;20234;-95